createdAt,value
2022-11-25T00:03:08.970Z,9.90
2022-11-25T00:08:12.672Z,10.00
2022-11-25T00:13:17.633Z,10.00
2022-11-25T00:18:21.541Z,10.00
2022-11-25T00:23:29.165Z,10.00
2022-11-25T00:28:38.515Z,10.00
2022-11-25T00:33:42.963Z,10.00
2022-11-25T00:38:47.139Z,10.00
2022-11-25T00:44:09.647Z,10.10
2022-11-25T00:49:13.371Z,10.00
2022-11-25T00:54:17.236Z,10.10
2022-11-25T00:59:22.301Z,10.10
2022-11-25T01:04:26.028Z,10.10
2022-11-25T01:09:33.983Z,10.10
2022-11-25T01:14:39.242Z,10.10
2022-11-25T01:19:43.004Z,10.10
2022-11-25T01:24:46.616Z,10.10
2022-11-25T01:29:51.849Z,10.20
2022-11-25T01:34:55.540Z,10.20
2022-11-25T01:40:00.962Z,10.20
2022-11-25T01:45:34.311Z,10.20
2022-11-25T01:50:38.404Z,10.30
2022-11-25T01:55:48.867Z,10.20
2022-11-25T02:00:54.075Z,10.20
2022-11-25T02:06:04.518Z,10.20
2022-11-25T02:11:08.186Z,10.20
2022-11-25T02:16:13.256Z,10.10
2022-11-25T02:21:21.690Z,10.10
2022-11-25T02:26:27.156Z,10.10
2022-11-25T02:31:31.360Z,10.10
2022-11-25T02:36:37.073Z,10.10
2022-11-25T02:41:45.497Z,10.00
2022-11-25T02:46:49.248Z,10.00
2022-11-25T02:51:55.635Z,10.00
2022-11-25T02:57:00.785Z,10.00
2022-11-25T03:02:04.734Z,9.90
2022-11-25T03:07:08.554Z,9.90
2022-11-25T03:12:22.707Z,9.90
2022-11-25T03:17:29.844Z,9.90
2022-11-25T03:22:33.631Z,9.90
2022-11-25T03:27:42.598Z,9.80
2022-11-25T03:32:46.923Z,9.90
2022-11-25T03:37:50.639Z,9.90
2022-11-25T03:42:55.986Z,9.90
2022-11-25T03:48:00.650Z,9.80
2022-11-25T03:53:04.819Z,9.80
2022-11-25T03:58:10.009Z,9.80
2022-11-25T04:03:13.783Z,9.80
2022-11-25T04:08:17.557Z,9.80
2022-11-25T04:13:23.902Z,9.80
2022-11-25T04:18:28.748Z,9.70
2022-11-25T04:23:35.543Z,9.70
2022-11-25T04:28:45.024Z,9.70
2022-11-25T04:33:52.597Z,9.60
2022-11-25T04:38:58.384Z,9.60
2022-11-25T04:44:03.663Z,9.50
2022-11-25T04:49:07.422Z,9.50
2022-11-25T04:54:14.736Z,9.50
2022-11-25T04:59:41.454Z,9.50
2022-11-25T05:04:49.302Z,9.40
2022-11-25T05:09:53.104Z,9.50
2022-11-25T05:15:12.953Z,9.50
2022-11-25T05:20:19.327Z,9.50
2022-11-25T05:25:24.879Z,9.40
2022-11-25T05:30:59.373Z,9.40
2022-11-25T05:36:04.928Z,9.40
2022-11-25T05:41:16.978Z,9.40
2022-11-25T05:46:24.095Z,9.30
2022-11-25T05:51:31.916Z,9.40
2022-11-25T05:56:38.995Z,9.30
2022-11-25T06:02:02.625Z,9.40
2022-11-25T06:07:07.490Z,9.30
2022-11-25T06:12:11.587Z,9.40
2022-11-25T06:17:23.942Z,9.40
2022-11-25T06:22:36.827Z,9.40
2022-11-25T06:28:10.642Z,9.40
2022-11-25T06:33:05.614Z,9.30
2022-11-25T06:38:10.057Z,9.30
2022-11-25T06:43:13.663Z,9.30
2022-11-25T06:48:18.695Z,9.30
2022-11-25T06:53:24.254Z,9.30
2022-11-25T06:58:35.711Z,9.20
2022-11-25T07:03:41.894Z,9.20
2022-11-25T07:08:46.157Z,9.20
2022-11-25T07:13:52.788Z,9.20
2022-11-25T07:18:59.604Z,9.20
2022-11-25T07:24:05.939Z,9.10
2022-11-25T07:34:37.065Z,9.00
2022-11-25T07:39:40.678Z,9.00
2022-11-25T07:44:44.240Z,8.90
2022-11-25T07:50:10.517Z,9.00
2022-11-25T07:55:14.224Z,9.00
2022-11-25T08:00:18.688Z,9.00
2022-11-25T08:05:23.737Z,9.00
2022-11-25T08:10:27.441Z,8.90
2022-11-25T08:15:31.143Z,9.00
2022-11-25T08:20:36.258Z,8.90
2022-11-25T08:25:43.905Z,8.90
2022-11-25T08:30:50.027Z,8.90
2022-11-25T08:35:56.329Z,8.90
2022-11-25T08:41:00.303Z,8.90
2022-11-25T08:46:09.548Z,8.90
2022-11-25T08:51:16.538Z,8.90
2022-11-25T08:56:25.999Z,9.00
2022-11-25T09:01:30.672Z,9.10
2022-11-25T09:06:35.796Z,9.10
2022-11-25T09:11:39.499Z,9.20
2022-11-25T09:16:43.468Z,9.20
2022-11-25T09:21:48.592Z,9.20
2022-11-25T09:26:52.340Z,9.30
2022-11-25T09:31:56.209Z,9.30
2022-11-25T09:37:01.354Z,9.40
2022-11-25T09:42:37.658Z,9.50
2022-11-25T09:47:52.846Z,9.50
2022-11-25T09:53:07.994Z,9.70
2022-11-25T09:58:21.727Z,9.90
2022-11-25T10:03:34.328Z,10.00
2022-11-25T10:08:41.652Z,10.10
2022-11-25T10:13:52.635Z,10.20
2022-11-25T10:19:01.952Z,10.30
2022-11-25T10:24:13.067Z,10.30
2022-11-25T10:29:26.229Z,10.50
2022-11-25T10:34:36.746Z,10.50
2022-11-25T10:39:42.228Z,10.50
2022-11-25T10:44:45.853Z,10.50
2022-11-25T10:50:01.021Z,10.50
2022-11-25T10:55:14.056Z,10.60
2022-11-25T11:00:33.199Z,10.70
2022-11-25T11:05:46.785Z,10.70
2022-11-25T11:11:15.176Z,10.80
2022-11-25T11:16:31.043Z,10.80
2022-11-25T11:21:36.869Z,10.80
2022-11-25T11:26:41.848Z,10.80
2022-11-25T11:31:48.366Z,10.90
2022-11-25T11:37:05.369Z,11.00
2022-11-25T11:42:18.198Z,11.00
2022-11-25T11:47:29.527Z,11.00
2022-11-25T11:52:49.678Z,11.10
2022-11-25T11:58:04.759Z,11.10
2022-11-25T12:03:15.797Z,11.20
2022-11-25T12:08:27.518Z,11.30
2022-11-25T12:13:38.856Z,11.40
2022-11-25T12:18:50.476Z,11.40
2022-11-25T12:24:04.037Z,11.50
2022-11-25T12:29:14.538Z,11.60
2022-11-25T12:34:29.145Z,11.60
2022-11-25T12:39:40.717Z,11.70
2022-11-25T12:44:58.301Z,11.70
2022-11-25T12:50:02.255Z,11.80
2022-11-25T12:55:18.947Z,11.80
2022-11-25T13:00:41.035Z,11.80
2022-11-25T13:06:24.249Z,11.90
2022-11-25T13:12:09.236Z,11.80
2022-11-25T13:17:16.413Z,11.90
2022-11-25T13:22:29.667Z,11.90
2022-11-25T13:27:51.136Z,11.90
2022-11-25T13:32:56.311Z,11.80
2022-11-25T13:38:00.113Z,11.90
2022-11-25T13:43:04.012Z,11.80
2022-11-25T13:48:18.742Z,11.90
2022-11-25T13:53:25.582Z,11.90
2022-11-25T13:58:35.840Z,11.90
2022-11-25T14:03:50.040Z,11.80
2022-11-25T14:09:00.912Z,11.80
2022-11-25T14:14:20.521Z,11.80
2022-11-25T14:19:58.251Z,11.80
2022-11-25T14:25:12.759Z,11.80
2022-11-25T14:30:18.946Z,11.80
2022-11-25T14:35:29.232Z,11.80
2022-11-25T14:40:37.743Z,11.80
2022-11-25T14:45:41.552Z,11.90
2022-11-25T14:50:57.776Z,11.90
2022-11-25T14:56:02.765Z,11.90
2022-11-25T15:01:08.846Z,11.90
2022-11-25T15:06:15.246Z,11.90
2022-11-25T15:11:21.191Z,11.90
2022-11-25T15:16:31.605Z,11.80
2022-11-25T15:21:54.163Z,11.80
2022-11-25T15:27:04.369Z,11.70
2022-11-25T15:32:11.578Z,11.60
2022-11-25T15:37:16.907Z,11.50
2022-11-25T15:42:23.477Z,11.50
2022-11-25T15:47:29.302Z,11.40
2022-11-25T15:52:37.262Z,11.30
2022-11-25T15:57:41.762Z,11.30
2022-11-25T16:02:54.618Z,11.20
2022-11-25T16:08:21.758Z,11.20
2022-11-25T16:13:30.007Z,11.10
2022-11-25T16:18:41.065Z,11.10
2022-11-25T16:23:50.720Z,11.00
2022-11-25T16:28:56.685Z,11.00
2022-11-25T16:34:10.471Z,10.90
2022-11-25T16:39:15.776Z,10.90
2022-11-25T16:44:21.371Z,10.80
2022-11-25T16:49:25.842Z,10.80
2022-11-25T16:54:33.421Z,10.70
2022-11-25T16:59:40.099Z,10.70
2022-11-25T17:04:43.897Z,10.60
2022-11-25T17:09:48.977Z,10.50
2022-11-25T17:14:52.926Z,10.50
2022-11-25T17:19:56.994Z,10.50
2022-11-25T17:25:02.006Z,10.50
2022-11-25T17:30:08.115Z,10.40
2022-11-25T17:35:18.865Z,10.40
2022-11-25T17:40:23.855Z,10.30
2022-11-25T17:45:29.494Z,10.30
2022-11-25T17:50:33.324Z,10.30
2022-11-25T17:55:39.288Z,10.20
2022-11-25T18:00:44.991Z,10.20
2022-11-25T18:05:48.673Z,10.10
2022-11-25T18:10:53.847Z,10.10
2022-11-25T18:15:57.717Z,10.00
2022-11-25T18:21:01.393Z,10.00
2022-11-25T18:26:06.876Z,10.00
2022-11-25T18:31:13.315Z,9.90
2022-11-25T18:36:17.200Z,9.80
2022-11-25T18:41:23.436Z,9.80
2022-11-25T18:46:27.500Z,9.70
2022-11-25T18:51:31.186Z,9.70
2022-11-25T18:56:37.373Z,9.70
2022-11-25T19:01:45.392Z,9.60
2022-11-25T19:06:52.539Z,9.60
2022-11-25T19:11:57.760Z,9.50
2022-11-25T19:17:04.613Z,9.50
2022-11-25T19:22:12.079Z,9.50
2022-11-25T19:27:21.277Z,9.50
2022-11-25T19:32:27.479Z,9.40
2022-11-25T19:37:31.199Z,9.40
2022-11-25T19:42:36.725Z,9.40
2022-11-25T19:47:40.749Z,9.30
2022-11-25T19:52:44.424Z,9.30
2022-11-25T19:57:50.268Z,9.20
2022-11-25T20:02:56.511Z,9.20
2022-11-25T20:08:00.616Z,9.20
2022-11-25T20:13:08.017Z,9.20
2022-11-25T20:18:17.973Z,9.10
2022-11-25T20:23:28.229Z,9.10
2022-11-25T20:28:33.931Z,9.10
2022-11-25T20:33:37.829Z,9.10
2022-11-25T20:38:46.691Z,9.10
2022-11-25T20:43:52.433Z,9.10
2022-11-25T20:48:59.529Z,9.10
2022-11-25T20:54:05.301Z,9.00
2022-11-25T20:59:20.464Z,9.00
2022-11-25T21:04:24.442Z,9.00
2022-11-25T21:09:32.639Z,9.00
2022-11-25T21:14:38.004Z,9.00
2022-11-25T21:19:42.020Z,8.90
2022-11-25T21:24:45.855Z,8.90
2022-11-25T21:29:51.011Z,8.90
2022-11-25T21:34:55.303Z,8.80
2022-11-25T21:39:59.627Z,8.80
2022-11-25T21:45:05.143Z,8.80
2022-11-25T21:50:14.873Z,8.70
2022-11-25T21:55:18.853Z,8.70
2022-11-25T22:00:27.020Z,8.70
2022-11-25T22:05:30.642Z,8.60
2022-11-25T22:10:34.301Z,8.70
2022-11-25T22:15:39.400Z,8.60
2022-11-25T22:20:43.117Z,8.60
2022-11-25T22:25:48.985Z,8.60
2022-11-25T22:30:55.997Z,8.60
2022-11-25T22:36:00.557Z,8.60
2022-11-25T22:41:05.464Z,8.50
2022-11-25T22:46:12.140Z,8.50
2022-11-25T22:51:18.552Z,8.50
2022-11-25T22:56:22.267Z,8.50
2022-11-25T23:01:27.629Z,8.40
2022-11-25T23:06:31.493Z,8.40
2022-11-25T23:11:39.834Z,8.40
2022-11-25T23:16:45.330Z,8.40
2022-11-25T23:21:49.087Z,8.40
2022-11-25T23:26:52.781Z,8.30
2022-11-25T23:31:58.581Z,8.30
2022-11-25T23:37:02.589Z,8.30
2022-11-25T23:42:12.529Z,8.20
2022-11-25T23:47:20.579Z,8.20
2022-11-25T23:52:28.827Z,8.20
2022-11-25T23:57:34.351Z,8.10
